Time;durP1;ratioP1;P1;durP2;ratioP2;P2;SDS_P1;SDS_P2;PMS_P1;PMS_P2;Temp;Humidity;BMP_temperature;BMP_pressure;BME280_temperature;BME280_humidity;BME280_pressure;Samples;Min_cycle;Max_cycle;Signal;HPM_P1;HPM_P2
2023/07/14 00:00:43;;;;;;;10.67;7.40;;;;;;;;;;5141005;27;20485;-63
2023/07/14 00:03:11;;;;;;;9.00;7.90;;;;;;;;;;5140325;27;20537;-63
2023/07/14 00:05:40;;;;;;;12.10;8.07;;;;;;;;;;5136540;27;20485;-62
2023/07/14 00:08:14;;;;;;;11.13;7.70;;;;;;;;;;5133043;27;20489;-62
2023/07/14 00:10:40;;;;;;;9.87;8.33;;;;;;;;;;5131259;27;20479;-62
2023/07/14 00:13:07;;;;;;;9.47;7.33;;;;;;;;;;5129494;27;20527;-61
2023/07/14 00:15:35;;;;;;;12.13;7.80;;;;;;;;;;5135033;27;20446;-62
2023/07/14 00:18:03;;;;;;;10.37;7.87;;;;;;;;;;5134464;27;20524;-62
2023/07/14 00:20:30;;;;;;;12.57;8.60;;;;;;;;;;5141640;27;20469;-62
2023/07/14 00:22:58;;;;;;;9.90;6.13;;;;;;;;;;5136631;27;20509;-62
2023/07/14 00:25:25;;;;;;;10.70;6.70;;;;;;;;;;5132133;27;20977;-62
2023/07/14 00:27:52;;;;;;;8.60;6.77;;;;;;;;;;5137508;27;20480;-62
2023/07/14 00:30:20;;;;;;;9.77;7.00;;;;;;;;;;5132512;27;20481;-62
2023/07/14 00:32:48;;;;;;;7.67;6.67;;;;;;;;;;5127904;27;20522;-62
2023/07/14 00:35:24;;;;;;;6.60;6.00;;;;;;;;;;5133197;27;20572;-62
2023/07/14 00:37:52;;;;;;;8.60;7.53;;;;;;;;;;5134399;27;20452;-62
2023/07/14 00:40:21;;;;;;;9.27;6.93;;;;;;;;;;5135524;27;20477;-62
2023/07/14 00:42:48;;;;;;;8.37;7.27;;;;;;;;;;5128120;27;20556;-62
2023/07/14 00:45:17;;;;;;;7.27;6.33;;;;;;;;;;5134572;27;20449;-61
2023/07/14 00:47:43;;;;;;;7.50;6.13;;;;;;;;;;5131888;27;20516;-62
2023/07/14 00:50:16;;;;;;;10.17;7.37;;;;;;;;;;5135087;27;20556;-61
2023/07/14 00:52:43;;;;;;;8.10;7.13;;;;;;;;;;5140017;27;20448;-62
2023/07/14 00:55:25;;;;;;;7.70;6.67;;;;;;;;;;5137277;27;20465;-62
2023/07/14 00:57:54;;;;;;;11.40;6.70;;;;;;;;;;5135418;27;20452;-62
2023/07/14 01:00:29;;;;;;;7.57;6.87;;;;;;;;;;5135324;27;20486;-62
2023/07/14 01:02:56;;;;;;;10.00;7.07;;;;;;;;;;5127464;27;21119;-62
2023/07/14 01:05:23;;;;;;;7.80;7.00;;;;;;;;;;5139726;27;20473;-62
2023/07/14 01:07:51;;;;;;;7.13;6.43;;;;;;;;;;5135397;27;20506;-62
2023/07/14 01:10:18;;;;;;;7.03;6.37;;;;;;;;;;5133140;27;20453;-62
2023/07/14 01:12:48;;;;;;;7.20;6.50;;;;;;;;;;5138710;27;20469;-62
2023/07/14 01:15:16;;;;;;;9.07;7.53;;;;;;;;;;5138514;27;20488;-62
2023/07/14 01:17:43;;;;;;;8.20;7.03;;;;;;;;;;5142882;27;20465;-62
2023/07/14 01:20:10;;;;;;;7.70;6.90;;;;;;;;;;5134551;27;20766;-62
2023/07/14 01:22:40;;;;;;;9.33;7.23;;;;;;;;;;5135097;27;20835;-62
2023/07/14 01:25:14;;;;;;;9.40;7.13;;;;;;;;;;5138172;27;20449;-62
2023/07/14 01:27:41;;;;;;;7.50;6.80;;;;;;;;;;5125489;27;20525;-62
2023/07/14 01:30:08;;;;;;;7.57;5.93;;;;;;;;;;5141710;27;20968;-62
2023/07/14 01:32:36;;;;;;;6.37;5.80;;;;;;;;;;5127521;27;20545;-62
2023/07/14 01:35:03;;;;;;;11.10;5.73;;;;;;;;;;5116607;27;20458;-62
2023/07/14 01:37:31;;;;;;;7.83;5.70;;;;;;;;;;5138567;27;20883;-62
2023/07/14 01:39:58;;;;;;;6.63;5.73;;;;;;;;;;5129200;27;20501;-63
2023/07/14 01:42:24;;;;;;;5.20;4.60;;;;;;;;;;5134255;27;20529;-63
2023/07/14 01:44:52;;;;;;;6.67;5.60;;;;;;;;;;5136999;27;20493;-63
2023/07/14 01:47:19;;;;;;;7.37;6.20;;;;;;;;;;5136040;27;20501;-63
2023/07/14 01:49:47;;;;;;;6.17;4.57;;;;;;;;;;5136388;27;20480;-61
2023/07/14 01:52:14;;;;;;;7.63;5.00;;;;;;;;;;5139305;27;20518;-63
2023/07/14 01:54:43;;;;;;;6.83;5.20;;;;;;;;;;5138452;27;20526;-62
2023/07/14 01:57:12;;;;;;;9.60;6.50;;;;;;;;;;5139246;27;20464;-62
2023/07/14 01:59:40;;;;;;;8.77;6.63;;;;;;;;;;5131787;27;20454;-62
2023/07/14 02:02:11;;;;;;;7.27;6.37;;;;;;;;;;5139179;27;20547;-62
2023/07/14 02:04:38;;;;;;;8.30;6.77;;;;;;;;;;5124129;27;20505;-62
2023/07/14 02:07:05;;;;;;;7.70;6.70;;;;;;;;;;5123648;27;20481;-62
2023/07/14 02:09:33;;;;;;;7.27;6.57;;;;;;;;;;5127669;27;20474;-62
2023/07/14 02:12:00;;;;;;;13.30;8.70;;;;;;;;;;5131850;27;20601;-62
2023/07/14 02:14:28;;;;;;;8.37;7.57;;;;;;;;;;5132771;27;20517;-62
2023/07/14 02:17:02;;;;;;;10.40;7.13;;;;;;;;;;5138945;27;20445;-63
2023/07/14 02:19:30;;;;;;;9.73;7.90;;;;;;;;;;5132051;28;20458;-62
2023/07/14 02:21:56;;;;;;;28.73;10.50;;;;;;;;;;5136253;28;21255;-62
2023/07/14 02:24:24;;;;;;;11.30;8.70;;;;;;;;;;5137097;27;20464;-63
2023/07/14 02:26:53;;;;;;;8.93;7.10;;;;;;;;;;5130563;28;20515;-62
2023/07/14 02:29:19;;;;;;;10.50;9.03;;;;;;;;;;5136615;28;20446;-62
2023/07/14 02:31:49;;;;;;;9.87;8.90;;;;;;;;;;5129863;27;21016;-62
2023/07/14 02:34:16;;;;;;;13.87;8.67;;;;;;;;;;5138931;27;20456;-62
2023/07/14 02:36:55;;;;;;;11.30;8.40;;;;;;;;;;5138222;28;21014;-62
2023/07/14 02:39:22;;;;;;;10.90;9.47;;;;;;;;;;5133508;28;20582;-61
2023/07/14 02:41:49;;;;;;;9.83;8.83;;;;;;;;;;5137672;27;20504;-61
2023/07/14 02:44:17;;;;;;;10.50;9.03;;;;;;;;;;5131228;28;20460;-60
2023/07/14 02:46:44;;;;;;;13.20;9.20;;;;;;;;;;5143654;27;20528;-61
2023/07/14 02:49:11;;;;;;;9.07;8.27;;;;;;;;;;5138155;27;20913;-60
2023/07/14 02:51:38;;;;;;;12.60;9.07;;;;;;;;;;5143031;27;20477;-61
2023/07/14 02:54:06;;;;;;;11.17;9.10;;;;;;;;;;5131272;27;20541;-61
2023/07/14 02:56:32;;;;;;;8.50;7.53;;;;;;;;;;5134090;27;20517;-61
2023/07/14 02:58:59;;;;;;;12.37;8.70;;;;;;;;;;5141641;27;20445;-61
2023/07/14 03:01:25;;;;;;;9.90;7.97;;;;;;;;;;5134213;27;20551;-62
2023/07/14 03:03:52;;;;;;;10.03;8.07;;;;;;;;;;5134277;27;20476;-62
2023/07/14 03:06:19;;;;;;;11.33;8.70;;;;;;;;;;5137769;27;20643;-61
2023/07/14 03:08:46;;;;;;;12.80;7.57;;;;;;;;;;5136935;27;20536;-61
2023/07/14 03:11:14;;;;;;;11.90;8.70;;;;;;;;;;5135615;27;20487;-61
2023/07/14 03:13:40;;;;;;;9.10;7.90;;;;;;;;;;5142437;27;20533;-61
2023/07/14 03:16:07;;;;;;;9.27;8.07;;;;;;;;;;5135640;27;20552;-61
2023/07/14 03:18:33;;;;;;;8.57;7.53;;;;;;;;;;5142017;27;20524;-61
2023/07/14 03:21:01;;;;;;;10.07;8.70;;;;;;;;;;5141203;27;20453;-61
2023/07/14 03:23:27;;;;;;;9.43;7.67;;;;;;;;;;5139998;27;20504;-61
2023/07/14 03:25:54;;;;;;;9.73;7.70;;;;;;;;;;5138987;27;20988;-61
2023/07/14 03:28:22;;;;;;;10.00;7.30;;;;;;;;;;5139602;27;21011;-61
2023/07/14 03:30:48;;;;;;;9.90;7.90;;;;;;;;;;5134703;27;20449;-61
2023/07/14 03:33:14;;;;;;;7.67;6.93;;;;;;;;;;5133138;27;20552;-61
2023/07/14 03:35:41;;;;;;;9.87;7.93;;;;;;;;;;5133994;27;21079;-61
2023/07/14 03:38:08;;;;;;;9.43;7.00;;;;;;;;;;5134577;27;20465;-61
2023/07/14 03:40:34;;;;;;;9.50;7.10;;;;;;;;;;5134634;27;20517;-61
2023/07/14 03:43:03;;;;;;;7.90;6.93;;;;;;;;;;5134412;27;20842;-61
2023/07/14 03:45:31;;;;;;;8.17;7.33;;;;;;;;;;5130445;27;20449;-61
2023/07/14 03:47:57;;;;;;;8.27;7.53;;;;;;;;;;5135938;27;20565;-62
2023/07/14 03:50:23;;;;;;;7.50;6.33;;;;;;;;;;5125079;27;20660;-61
2023/07/14 03:52:50;;;;;;;8.23;7.23;;;;;;;;;;5137726;27;20541;-62
2023/07/14 03:55:16;;;;;;;6.80;6.13;;;;;;;;;;5131201;27;20597;-62
2023/07/14 03:57:43;;;;;;;9.47;5.80;;;;;;;;;;5139567;27;20445;-62
2023/07/14 04:00:14;;;;;;;9.00;7.20;;;;;;;;;;5136138;27;20445;-61
2023/07/14 04:02:42;;;;;;;8.47;6.30;;;;;;;;;;5142449;27;20480;-62
2023/07/14 04:05:09;;;;;;;7.70;6.70;;;;;;;;;;5132457;27;20586;-62
2023/07/14 04:07:35;;;;;;;7.27;6.50;;;;;;;;;;5139317;27;20517;-62
2023/07/14 04:10:03;;;;;;;11.03;6.80;;;;;;;;;;5134867;27;20474;-62
2023/07/14 04:12:30;;;;;;;9.33;8.40;;;;;;;;;;5140184;27;20450;-62
2023/07/14 04:14:56;;;;;;;8.40;6.70;;;;;;;;;;5135881;27;20473;-61
2023/07/14 04:17:23;;;;;;;9.73;7.77;;;;;;;;;;5134069;27;20542;-61
2023/07/14 04:19:51;;;;;;;8.70;6.90;;;;;;;;;;5132647;27;20450;-61
2023/07/14 04:22:18;;;;;;;7.67;6.90;;;;;;;;;;5135117;27;20511;-61
2023/07/14 04:24:44;;;;;;;8.80;7.70;;;;;;;;;;5140103;27;20488;-61
2023/07/14 04:27:12;;;;;;;7.47;6.63;;;;;;;;;;5131327;27;20474;-62
2023/07/14 04:29:39;;;;;;;7.70;6.80;;;;;;;;;;5132162;27;20509;-61
2023/07/14 04:32:06;;;;;;;8.63;7.17;;;;;;;;;;5128712;27;20509;-61
2023/07/14 04:34:33;;;;;;;8.30;6.93;;;;;;;;;;5123838;27;20457;-61
2023/07/14 04:37:01;;;;;;;10.00;7.20;;;;;;;;;;5130781;27;20481;-61
2023/07/14 04:39:28;;;;;;;8.43;7.23;;;;;;;;;;5121696;27;20487;-62
2023/07/14 04:41:55;;;;;;;8.67;6.47;;;;;;;;;;5132849;27;20549;-62
2023/07/14 04:44:21;;;;;;;10.37;6.47;;;;;;;;;;5136490;27;20562;-62
2023/07/14 04:46:48;;;;;;;9.20;6.60;;;;;;;;;;5134215;27;20943;-62
2023/07/14 04:49:15;;;;;;;8.57;7.10;;;;;;;;;;5126289;27;20481;-61
2023/07/14 04:51:42;;;;;;;7.87;6.30;;;;;;;;;;5130093;27;20462;-61
2023/07/14 04:54:10;;;;;;;11.97;6.03;;;;;;;;;;5136140;27;20441;-63
2023/07/14 04:56:37;;;;;;;8.87;5.40;;;;;;;;;;5122901;27;20454;-61
2023/07/14 04:59:05;;;;;;;8.17;6.07;;;;;;;;;;5130445;27;20518;-61
2023/07/14 05:01:31;;;;;;;7.87;5.97;;;;;;;;;;5138747;27;21108;-61
2023/07/14 05:03:58;;;;;;;7.10;5.30;;;;;;;;;;5132610;27;20532;-61
2023/07/14 05:06:24;;;;;;;9.80;6.17;;;;;;;;;;5123013;27;20484;-61
2023/07/14 05:08:50;;;;;;;5.70;4.53;;;;;;;;;;5132330;27;20491;-61
2023/07/14 05:11:18;;;;;;;11.70;5.83;;;;;;;;;;5132461;27;20516;-61
2023/07/14 05:13:45;;;;;;;7.23;4.03;;;;;;;;;;5125471;27;20457;-61
2023/07/14 05:16:12;;;;;;;6.60;4.40;;;;;;;;;;5130322;27;20500;-61
2023/07/14 05:18:38;;;;;;;6.57;3.80;;;;;;;;;;5136976;27;20502;-61
2023/07/14 05:21:05;;;;;;;6.60;3.70;;;;;;;;;;5134204;27;20449;-61
2023/07/14 05:23:32;;;;;;;5.20;3.73;;;;;;;;;;5128927;27;20489;-61
2023/07/14 05:25:58;;;;;;;4.70;3.40;;;;;;;;;;5125598;27;20521;-61
2023/07/14 05:28:26;;;;;;;6.50;3.40;;;;;;;;;;5136776;27;20507;-62
2023/07/14 05:30:52;;;;;;;5.50;3.50;;;;;;;;;;5140585;27;20553;-62
2023/07/14 05:33:19;;;;;;;7.00;3.40;;;;;;;;;;5146939;27;20489;-62
2023/07/14 05:35:46;;;;;;;5.10;2.83;;;;;;;;;;5122720;27;20959;-62
2023/07/14 05:38:13;;;;;;;6.70;2.90;;;;;;;;;;5131558;27;20523;-62
2023/07/14 05:40:39;;;;;;;5.90;4.07;;;;;;;;;;5130845;27;20560;-62
2023/07/14 05:43:06;;;;;;;4.80;3.50;;;;;;;;;;5121571;27;20506;-61
2023/07/14 05:45:33;;;;;;;5.30;3.10;;;;;;;;;;5131971;27;20539;-61
2023/07/14 05:48:00;;;;;;;5.60;3.20;;;;;;;;;;5135236;27;20481;-62
2023/07/14 05:50:27;;;;;;;4.07;2.50;;;;;;;;;;5136211;27;20453;-62
2023/07/14 05:52:53;;;;;;;7.70;3.37;;;;;;;;;;5122482;27;20528;-62
2023/07/14 05:55:19;;;;;;;6.80;2.73;;;;;;;;;;5129005;27;20473;-62
2023/07/14 05:57:46;;;;;;;4.53;2.60;;;;;;;;;;5139611;27;20515;-62
2023/07/14 06:00:16;;;;;;;5.60;4.10;;;;;;;;;;5131687;27;20484;-62
2023/07/14 06:02:44;;;;;;;9.80;3.70;;;;;;;;;;5127442;27;20885;-62
2023/07/14 06:05:11;;;;;;;8.93;3.40;;;;;;;;;;5124699;27;20507;-62
2023/07/14 06:07:38;;;;;;;5.57;3.60;;;;;;;;;;5138585;27;20467;-62
2023/07/14 06:10:05;;;;;;;4.73;2.77;;;;;;;;;;5133109;27;20961;-61
2023/07/14 06:12:32;;;;;;;6.97;2.67;;;;;;;;;;5135260;27;20480;-61
2023/07/14 06:14:58;;;;;;;4.87;3.07;;;;;;;;;;5122876;27;21062;-61
2023/07/14 06:17:25;;;;;;;8.70;2.93;;;;;;;;;;5131285;28;20481;-61
2023/07/14 06:19:52;;;;;;;4.03;2.60;;;;;;;;;;5125935;28;20451;-62
2023/07/14 06:22:20;;;;;;;8.63;3.00;;;;;;;;;;5132880;27;20480;-62
2023/07/14 06:24:48;;;;;;;6.83;3.30;;;;;;;;;;5138352;27;20957;-62
2023/07/14 06:27:14;;;;;;;3.70;2.67;;;;;;;;;;5129575;27;20523;-61
2023/07/14 06:29:41;;;;;;;7.70;2.43;;;;;;;;;;5134172;27;20474;-62
2023/07/14 06:32:08;;;;;;;6.10;3.00;;;;;;;;;;5128415;27;20477;-61
2023/07/14 06:34:34;;;;;;;6.33;3.00;;;;;;;;;;5136163;27;20489;-62
2023/07/14 06:37:02;;;;;;;4.17;2.50;;;;;;;;;;5137039;27;20451;-62
2023/07/14 06:39:28;;;;;;;4.50;2.97;;;;;;;;;;5138098;27;20974;-62
2023/07/14 06:41:55;;;;;;;5.67;2.70;;;;;;;;;;5137172;27;20473;-62
2023/07/14 06:44:21;;;;;;;6.60;3.40;;;;;;;;;;5136148;27;20527;-62
2023/07/14 06:46:47;;;;;;;4.43;2.60;;;;;;;;;;5125253;27;21069;-62
2023/07/14 06:49:14;;;;;;;5.00;2.63;;;;;;;;;;5134412;27;20533;-61
2023/07/14 06:51:40;;;;;;;3.70;2.30;;;;;;;;;;5136494;27;20506;-62
2023/07/14 06:54:08;;;;;;;3.40;2.37;;;;;;;;;;5146118;27;20485;-62
2023/07/14 06:56:34;;;;;;;2.10;1.90;;;;;;;;;;5145608;27;20453;-62
2023/07/14 06:59:02;;;;;;;6.00;2.50;;;;;;;;;;5135122;27;20537;-62
2023/07/14 07:01:28;;;;;;;3.83;2.20;;;;;;;;;;5123133;27;20465;-62
2023/07/14 07:03:55;;;;;;;4.17;2.00;;;;;;;;;;5136655;27;20520;-61
2023/07/14 07:06:21;;;;;;;2.57;1.97;;;;;;;;;;5140048;27;20933;-61
2023/07/14 07:08:47;;;;;;;6.60;2.10;;;;;;;;;;5134190;27;20450;-62
2023/07/14 07:11:15;;;;;;;3.80;2.27;;;;;;;;;;5138586;27;20472;-61
2023/07/14 07:13:42;;;;;;;3.07;2.17;;;;;;;;;;5142314;27;20516;-61
2023/07/14 07:16:08;;;;;;;4.10;2.50;;;;;;;;;;5140696;27;20481;-62
2023/07/14 07:18:35;;;;;;;5.00;2.40;;;;;;;;;;5137478;27;20484;-62
2023/07/14 07:21:02;;;;;;;3.20;2.27;;;;;;;;;;5142850;27;20445;-62
2023/07/14 07:23:28;;;;;;;4.83;2.33;;;;;;;;;;5136457;27;20481;-62
2023/07/14 07:25:55;;;;;;;4.23;2.40;;;;;;;;;;5136288;27;20485;-61
2023/07/14 07:28:23;;;;;;;4.40;2.17;;;;;;;;;;5135899;27;20791;-61
2023/07/14 07:30:51;;;;;;;5.23;2.20;;;;;;;;;;5133661;27;20524;-62
2023/07/14 07:33:18;;;;;;;3.50;1.60;;;;;;;;;;5127563;27;20808;-61
2023/07/14 07:35:44;;;;;;;4.50;2.40;;;;;;;;;;5139779;27;20510;-62
2023/07/14 07:38:11;;;;;;;3.73;1.87;;;;;;;;;;5142538;27;20487;-61
2023/07/14 07:40:37;;;;;;;2.40;1.77;;;;;;;;;;5140903;27;20563;-61
2023/07/14 07:43:03;;;;;;;7.90;2.63;;;;;;;;;;5130401;27;20534;-61
2023/07/14 07:45:31;;;;;;;3.50;2.00;;;;;;;;;;5140726;27;20484;-61
2023/07/14 07:47:58;;;;;;;4.60;2.20;;;;;;;;;;5137773;27;20486;-61
2023/07/14 07:50:26;;;;;;;5.50;2.27;;;;;;;;;;5142543;27;20530;-61
2023/07/14 07:52:52;;;;;;;3.27;2.00;;;;;;;;;;5133148;27;20771;-61
2023/07/14 07:55:19;;;;;;;3.93;1.90;;;;;;;;;;5136551;27;20458;-61
2023/07/14 07:57:47;;;;;;;4.03;2.20;;;;;;;;;;5134241;27;20875;-60
2023/07/14 08:00:15;;;;;;;5.03;2.50;;;;;;;;;;5145741;27;20937;-61
2023/07/14 08:02:43;;;;;;;3.53;2.00;;;;;;;;;;5143725;27;20452;-61
2023/07/14 08:05:11;;;;;;;4.23;2.20;;;;;;;;;;5134435;27;20505;-61
2023/07/14 08:07:38;;;;;;;5.80;2.50;;;;;;;;;;5142264;27;20445;-61
2023/07/14 08:10:05;;;;;;;2.80;2.17;;;;;;;;;;5135941;27;20978;-61
2023/07/14 08:12:32;;;;;;;4.83;2.50;;;;;;;;;;5137117;27;20497;-61
2023/07/14 08:14:58;;;;;;;6.13;2.60;;;;;;;;;;5141419;27;20544;-61
2023/07/14 08:17:25;;;;;;;2.97;2.43;;;;;;;;;;5140245;27;20481;-61
2023/07/14 08:19:53;;;;;;;3.90;2.30;;;;;;;;;;5140203;27;20982;-62
2023/07/14 08:22:21;;;;;;;4.00;1.80;;;;;;;;;;5130107;27;20480;-61
2023/07/14 08:24:47;;;;;;;6.53;2.50;;;;;;;;;;5133799;27;20730;-62
2023/07/14 08:27:14;;;;;;;4.33;2.20;;;;;;;;;;5138722;27;20536;-62
2023/07/14 08:29:41;;;;;;;2.50;2.20;;;;;;;;;;5141028;27;20453;-62
2023/07/14 08:32:08;;;;;;;4.90;2.67;;;;;;;;;;5140945;27;20529;-62
2023/07/14 08:34:35;;;;;;;3.60;2.77;;;;;;;;;;5136383;27;20475;-63
2023/07/14 08:37:04;;;;;;;3.90;2.33;;;;;;;;;;5133085;27;20471;-62
2023/07/14 08:39:32;;;;;;;4.50;2.40;;;;;;;;;;5138108;27;20492;-60
2023/07/14 08:42:00;;;;;;;5.50;2.40;;;;;;;;;;5138619;27;20445;-62
2023/07/14 08:44:34;;;;;;;11.87;2.90;;;;;;;;;;5139569;27;20538;-60
2023/07/14 08:47:05;;;;;;;3.73;1.90;;;;;;;;;;5144604;27;20460;-60
2023/07/14 08:49:33;;;;;;;4.13;2.13;;;;;;;;;;5126788;27;20500;-62
2023/07/14 08:52:01;;;;;;;5.10;2.63;;;;;;;;;;5122933;27;20446;-63
2023/07/14 08:54:32;;;;;;;4.17;2.77;;;;;;;;;;5138123;27;20514;-63
2023/07/14 08:56:59;;;;;;;4.20;2.80;;;;;;;;;;5131097;27;20839;-62
2023/07/14 08:59:31;;;;;;;5.17;2.97;;;;;;;;;;5131115;27;20477;-63
2023/07/14 09:01:59;;;;;;;4.20;2.30;;;;;;;;;;5126592;27;20485;-63
2023/07/14 09:04:26;;;;;;;3.70;2.77;;;;;;;;;;5134647;27;20876;-63
2023/07/14 09:06:53;;;;;;;4.43;2.60;;;;;;;;;;5131422;27;20675;-60
2023/07/14 09:09:21;;;;;;;3.93;2.60;;;;;;;;;;5129905;27;20499;-60
2023/07/14 09:11:54;;;;;;;4.93;2.63;;;;;;;;;;5140299;27;20471;-60
2023/07/14 09:14:27;;;;;;;5.30;2.90;;;;;;;;;;5140098;27;20465;-60
2023/07/14 09:16:56;;;;;;;6.13;2.90;;;;;;;;;;5129319;27;20454;-60
2023/07/14 09:19:28;;;;;;;6.20;2.60;;;;;;;;;;5134696;27;20473;-63
2023/07/14 09:21:59;;;;;;;5.00;2.40;;;;;;;;;;5128340;27;20462;-63
2023/07/14 09:24:31;;;;;;;4.57;2.60;;;;;;;;;;5127933;27;20489;-61
2023/07/14 09:26:59;;;;;;;6.23;2.53;;;;;;;;;;5148476;27;20461;-63
2023/07/14 09:29:36;;;;;;;5.70;2.60;;;;;;;;;;5133929;27;20463;-63
2023/07/14 09:32:04;;;;;;;5.47;2.57;;;;;;;;;;5146484;27;20453;-60
2023/07/14 09:34:33;;;;;;;5.53;2.80;;;;;;;;;;5138567;27;20646;-63
2023/07/14 09:37:00;;;;;;;3.90;3.00;;;;;;;;;;5133830;27;20457;-60
2023/07/14 09:39:29;;;;;;;6.10;2.83;;;;;;;;;;5122953;27;20501;-62
2023/07/14 09:41:57;;;;;;;7.20;2.63;;;;;;;;;;5131939;27;20445;-60
2023/07/14 09:44:25;;;;;;;4.83;3.07;;;;;;;;;;5134312;27;20485;-60
2023/07/14 09:46:52;;;;;;;2.97;2.67;;;;;;;;;;5129570;27;20450;-61
2023/07/14 09:49:25;;;;;;;9.70;2.90;;;;;;;;;;5133354;27;21209;-60
2023/07/14 09:52:02;;;;;;;4.33;2.90;;;;;;;;;;5130546;27;21170;-61
2023/07/14 09:54:28;;;;;;;3.03;2.40;;;;;;;;;;5135676;27;20444;-61
2023/07/14 09:57:00;;;;;;;5.20;2.73;;;;;;;;;;5132585;27;20520;-61
2023/07/14 09:59:29;;;;;;;4.63;2.50;;;;;;;;;;5133864;27;20448;-61
2023/07/14 10:01:57;;;;;;;7.07;2.60;;;;;;;;;;5117372;27;20530;-61
2023/07/14 10:04:27;;;;;;;4.83;2.70;;;;;;;;;;5125416;27;20479;-60
2023/07/14 10:06:54;;;;;;;4.60;2.53;;;;;;;;;;5133522;27;20544;-61
2023/07/14 10:09:22;;;;;;;4.13;2.43;;;;;;;;;;5131499;27;20445;-61
2023/07/14 10:11:50;;;;;;;7.20;2.80;;;;;;;;;;5128268;27;20556;-61
2023/07/14 10:14:25;;;;;;;5.97;3.03;;;;;;;;;;5138273;27;20472;-61
2023/07/14 10:16:54;;;;;;;4.50;2.87;;;;;;;;;;5130525;27;20457;-61
2023/07/14 10:19:21;;;;;;;4.90;2.50;;;;;;;;;;5138942;27;20464;-61
2023/07/14 10:21:53;;;;;;;3.90;2.70;;;;;;;;;;5131359;27;20760;-61
2023/07/14 10:24:20;;;;;;;4.67;2.67;;;;;;;;;;5123626;28;20585;-62
2023/07/14 10:26:50;;;;;;;5.63;2.60;;;;;;;;;;5139219;28;20441;-62
2023/07/14 10:29:18;;;;;;;5.90;2.50;;;;;;;;;;5138965;27;20488;-62
2023/07/14 10:31:47;;;;;;;4.10;2.90;;;;;;;;;;5136717;28;20466;-61
2023/07/14 10:34:25;;;;;;;6.57;2.80;;;;;;;;;;5136059;27;20497;-62
2023/07/14 10:36:53;;;;;;;4.60;2.70;;;;;;;;;;5137104;27;20459;-62
2023/07/14 10:39:25;;;;;;;5.40;2.67;;;;;;;;;;5138922;27;20511;-62
2023/07/14 10:41:52;;;;;;;5.30;2.50;;;;;;;;;;5130298;28;20465;-62
2023/07/14 10:44:28;;;;;;;6.27;2.93;;;;;;;;;;5135500;27;20474;-62
2023/07/14 10:46:57;;;;;;;7.73;2.87;;;;;;;;;;5129427;27;20546;-62
2023/07/14 10:49:28;;;;;;;5.10;2.63;;;;;;;;;;5136714;27;20492;-61
2023/07/14 10:51:57;;;;;;;5.87;2.90;;;;;;;;;;5128273;28;20512;-61
2023/07/14 10:54:27;;;;;;;5.30;2.87;;;;;;;;;;5138375;27;20735;-61
2023/07/14 10:56:56;;;;;;;8.70;3.57;;;;;;;;;;5132626;28;20552;-63
2023/07/14 10:59:23;;;;;;;3.50;2.13;;;;;;;;;;5132021;28;20450;-63
2023/07/14 11:01:57;;;;;;;3.50;2.50;;;;;;;;;;5131444;28;20544;-63
2023/07/14 11:04:27;;;;;;;6.37;2.80;;;;;;;;;;5127800;27;20467;-62
2023/07/14 11:06:55;;;;;;;11.90;3.53;;;;;;;;;;5133701;28;20481;-63
2023/07/14 11:09:22;;;;;;;5.83;3.27;;;;;;;;;;5131966;27;20446;-63
2023/07/14 11:11:51;;;;;;;3.40;2.47;;;;;;;;;;5129481;27;20452;-63
2023/07/14 11:14:22;;;;;;;3.43;2.43;;;;;;;;;;5139076;27;20925;-63
2023/07/14 11:16:51;;;;;;;4.00;2.43;;;;;;;;;;5139769;27;20516;-63
2023/07/14 11:19:23;;;;;;;6.07;2.67;;;;;;;;;;5131387;27;20651;-63
2023/07/14 11:21:56;;;;;;;5.63;2.83;;;;;;;;;;5129790;27;20516;-62
2023/07/14 11:24:28;;;;;;;4.30;2.60;;;;;;;;;;5135643;27;20482;-62
2023/07/14 11:27:05;;;;;;;3.57;2.60;;;;;;;;;;5135404;27;20883;-62
2023/07/14 11:29:38;;;;;;;4.53;2.70;;;;;;;;;;5141380;27;20474;-62
2023/07/14 11:32:10;;;;;;;6.93;2.90;;;;;;;;;;5137317;27;20445;-62
2023/07/14 11:34:39;;;;;;;7.50;2.43;;;;;;;;;;5137903;27;20621;-62
2023/07/14 11:37:19;;;;;;;5.40;3.00;;;;;;;;;;5144593;27;20457;-62
2023/07/14 11:39:47;;;;;;;3.57;2.43;;;;;;;;;;5139597;27;20583;-62
2023/07/14 11:42:16;;;;;;;5.43;2.77;;;;;;;;;;5134229;27;20979;-62
2023/07/14 11:44:43;;;;;;;3.20;2.50;;;;;;;;;;5140803;27;20488;-62
2023/07/14 11:47:12;;;;;;;8.50;2.70;;;;;;;;;;5151257;27;20452;-62
2023/07/14 11:49:39;;;;;;;4.13;2.80;;;;;;;;;;5132627;27;20457;-62
2023/07/14 11:52:12;;;;;;;4.70;2.90;;;;;;;;;;5133246;27;20453;-62
2023/07/14 11:54:42;;;;;;;4.50;2.60;;;;;;;;;;5142236;27;20457;-62
2023/07/14 11:57:15;;;;;;;3.20;2.50;;;;;;;;;;5134926;27;20853;-62
2023/07/14 11:59:53;;;;;;;5.47;2.87;;;;;;;;;;5139157;27;20445;-62
2023/07/14 12:02:27;;;;;;;3.50;2.50;;;;;;;;;;5129156;27;20887;-62
2023/07/14 12:04:58;;;;;;;6.50;3.13;;;;;;;;;;5136196;27;20483;-62
2023/07/14 12:07:26;;;;;;;3.87;2.77;;;;;;;;;;5138226;27;20511;-62
2023/07/14 12:09:57;;;;;;;3.67;2.70;;;;;;;;;;5151332;27;20464;-62
2023/07/14 12:12:24;;;;;;;4.23;2.90;;;;;;;;;;5142197;27;20453;-61
2023/07/14 12:14:51;;;;;;;3.70;2.93;;;;;;;;;;5139964;27;20531;-62
2023/07/14 12:17:36;;;;;;;3.27;2.43;;;;;;;;;;5134837;27;21007;-63
2023/07/14 12:20:06;;;;;;;6.17;2.80;;;;;;;;;;5139552;27;20472;-62
2023/07/14 12:22:38;;;;;;;4.07;3.13;;;;;;;;;;5119762;27;20528;-62
2023/07/14 12:25:10;;;;;;;3.77;2.50;;;;;;;;;;5128363;27;20482;-63
2023/07/14 12:27:38;;;;;;;6.17;2.80;;;;;;;;;;5132526;27;20460;-62
2023/07/14 12:30:14;;;;;;;4.97;2.87;;;;;;;;;;5132491;27;20521;-63
2023/07/14 12:32:41;;;;;;;5.10;2.70;;;;;;;;;;5138271;27;20461;-63
2023/07/14 12:35:12;;;;;;;5.10;2.47;;;;;;;;;;5132732;27;20504;-63
2023/07/14 12:37:39;;;;;;;4.73;2.77;;;;;;;;;;5150615;27;20457;-63
2023/07/14 12:40:07;;;;;;;3.70;2.83;;;;;;;;;;5142718;27;20561;-63
2023/07/14 12:42:34;;;;;;;5.63;2.77;;;;;;;;;;5132515;27;20889;-65
2023/07/14 12:45:00;;;;;;;3.50;2.47;;;;;;;;;;5133913;27;20481;-65
2023/07/14 12:47:27;;;;;;;4.10;2.40;;;;;;;;;;5131334;27;20473;-64
2023/07/14 12:49:53;;;;;;;11.40;3.10;;;;;;;;;;5132922;27;20485;-64
2023/07/14 12:52:27;;;;;;;5.33;2.80;;;;;;;;;;5135937;27;20437;-64
2023/07/14 12:54:57;;;;;;;3.60;2.67;;;;;;;;;;5132917;27;20526;-64
2023/07/14 12:57:24;;;;;;;5.60;2.90;;;;;;;;;;5145384;27;20834;-64
2023/07/14 12:59:51;;;;;;;7.73;3.60;;;;;;;;;;5132481;27;20466;-63
2023/07/14 13:02:17;;;;;;;4.20;2.93;;;;;;;;;;5131270;27;20478;-64
2023/07/14 13:04:44;;;;;;;3.30;2.43;;;;;;;;;;5139873;27;20517;-64
2023/07/14 13:07:13;;;;;;;4.20;2.33;;;;;;;;;;5130858;27;20454;-64
2023/07/14 13:09:40;;;;;;;3.40;2.77;;;;;;;;;;5132472;27;21030;-64
2023/07/14 13:12:09;;;;;;;3.07;2.40;;;;;;;;;;5125995;27;20454;-64
2023/07/14 13:14:36;;;;;;;3.80;2.57;;;;;;;;;;5133691;27;20596;-64
2023/07/14 13:17:04;;;;;;;4.00;3.17;;;;;;;;;;5127776;27;20506;-64
2023/07/14 13:19:34;;;;;;;4.60;2.50;;;;;;;;;;5124607;27;20922;-64
2023/07/14 13:22:02;;;;;;;4.80;2.90;;;;;;;;;;5129664;27;20484;-64
2023/07/14 13:24:29;;;;;;;3.20;2.40;;;;;;;;;;5137503;27;20448;-64
2023/07/14 13:26:56;;;;;;;3.00;2.30;;;;;;;;;;5125516;27;20544;-64
2023/07/14 13:29:25;;;;;;;3.50;2.80;;;;;;;;;;5139969;27;20484;-63
2023/07/14 13:31:56;;;;;;;4.77;2.70;;;;;;;;;;5132995;27;21121;-64
2023/07/14 13:34:23;;;;;;;4.17;2.43;;;;;;;;;;5130365;27;20968;-64
2023/07/14 13:36:51;;;;;;;4.93;3.00;;;;;;;;;;5138804;27;20514;-64
2023/07/14 13:39:22;;;;;;;5.10;2.60;;;;;;;;;;5126087;27;20491;-64
2023/07/14 13:41:49;;;;;;;6.53;2.83;;;;;;;;;;5138372;27;20453;-64
2023/07/14 13:44:29;;;;;;;3.90;2.60;;;;;;;;;;5134050;27;20484;-64
2023/07/14 13:46:56;;;;;;;5.90;3.10;;;;;;;;;;5125591;27;20513;-64
2023/07/14 13:49:22;;;;;;;3.90;2.83;;;;;;;;;;5124206;27;20487;-64
2023/07/14 13:51:49;;;;;;;4.40;2.53;;;;;;;;;;5134379;27;20441;-64
2023/07/14 13:54:16;;;;;;;3.60;2.37;;;;;;;;;;5134818;27;21041;-64
2023/07/14 13:56:42;;;;;;;3.43;2.37;;;;;;;;;;5134128;27;20493;-63
2023/07/14 13:59:13;;;;;;;5.63;3.00;;;;;;;;;;5134737;27;20513;-64
2023/07/14 14:01:41;;;;;;;3.83;2.60;;;;;;;;;;5128496;27;20498;-63
2023/07/14 14:04:12;;;;;;;5.20;2.63;;;;;;;;;;5138291;27;20569;-63
2023/07/14 14:06:39;;;;;;;3.77;2.70;;;;;;;;;;5127691;27;20496;-64
2023/07/14 14:09:11;;;;;;;4.53;3.20;;;;;;;;;;5132741;27;20532;-63
2023/07/14 14:11:38;;;;;;;4.27;2.83;;;;;;;;;;5121411;27;20555;-64
2023/07/14 14:14:04;;;;;;;7.20;2.53;;;;;;;;;;5136765;27;20513;-63
2023/07/14 14:16:31;;;;;;;2.97;2.17;;;;;;;;;;5131623;27;20541;-64
2023/07/14 14:18:59;;;;;;;4.73;2.53;;;;;;;;;;5129298;28;20458;-63
2023/07/14 14:21:25;;;;;;;3.97;2.90;;;;;;;;;;5133453;27;20448;-64
2023/07/14 14:23:51;;;;;;;6.47;2.80;;;;;;;;;;5136969;28;20545;-63
2023/07/14 14:26:18;;;;;;;3.23;2.40;;;;;;;;;;5139984;27;20580;-64
2023/07/14 14:28:44;;;;;;;5.90;2.50;;;;;;;;;;5131212;28;20524;-64
2023/07/14 14:31:12;;;;;;;3.20;2.23;;;;;;;;;;5132767;28;20463;-63
2023/07/14 14:33:38;;;;;;;4.73;3.10;;;;;;;;;;5130229;27;20468;-63
2023/07/14 14:36:08;;;;;;;4.13;2.50;;;;;;;;;;5127962;28;20518;-64
2023/07/14 14:38:34;;;;;;;2.83;2.33;;;;;;;;;;5139527;27;20445;-63
2023/07/14 14:41:02;;;;;;;3.33;2.77;;;;;;;;;;5132385;28;20514;-64
2023/07/14 14:43:29;;;;;;;3.40;2.30;;;;;;;;;;5128088;27;20884;-63
2023/07/14 14:45:56;;;;;;;5.67;2.73;;;;;;;;;;5136987;27;21173;-63